Time;durP1;ratioP1;P1;durP2;ratioP2;P2;SDS_P1;SDS_P2;PMS_P1;PMS_P2;Temp;Humidity;BMP_temperature;BMP_pressure;BME280_temperature;BME280_humidity;BME280_pressure;Samples;Min_cycle;Max_cycle;Signal;HPM_P1;HPM_P2
2023/04/26 00:02:12;;;;;;;2.35;1.73;;;18.80;53.70;;;;;;5021757;28;20610;-70
2023/04/26 00:04:40;;;;;;;2.95;2.00;;;18.80;53.70;;;;;;5018505;28;20181;-70
2023/04/26 00:07:06;;;;;;;2.42;2.17;;;18.80;53.70;;;;;;4993124;28;20207;-70
2023/04/26 00:09:32;;;;;;;4.45;2.22;;;18.80;53.70;;;;;;5013757;28;20259;-71
2023/04/26 00:11:59;;;;;;;2.90;1.90;;;18.80;53.70;;;;;;4997118;28;20659;-70
2023/04/26 00:14:25;;;;;;;2.05;1.92;;;18.80;53.70;;;;;;5014451;28;20184;-71
2023/04/26 00:16:51;;;;;;;1.67;1.58;;;18.80;53.60;;;;;;5005504;28;20307;-70
2023/04/26 00:19:17;;;;;;;1.98;1.88;;;18.80;53.60;;;;;;5005018;28;20314;-71
2023/04/26 00:21:42;;;;;;;2.13;1.95;;;18.80;53.60;;;;;;5001823;28;20192;-71
2023/04/26 00:24:08;;;;;;;1.95;1.85;;;18.80;53.60;;;;;;5002012;28;20185;-70
2023/04/26 00:26:34;;;;;;;2.30;2.10;;;18.80;53.60;;;;;;5012568;28;20208;-70
2023/04/26 00:29:01;;;;;;;1.60;1.50;;;18.80;53.60;;;;;;5013106;28;20176;-70
2023/04/26 00:31:27;;;;;;;1.80;1.70;;;18.80;53.60;;;;;;5013289;28;20195;-70
2023/04/26 00:33:53;;;;;;;1.50;1.40;;;18.80;53.60;;;;;;4988587;28;20188;-70
2023/04/26 00:36:19;;;;;;;2.10;1.90;;;18.80;53.60;;;;;;5007440;28;20208;-70
2023/04/26 00:38:45;;;;;;;2.65;1.73;;;18.80;53.60;;;;;;5012896;28;20338;-71
2023/04/26 00:41:12;;;;;;;1.83;1.73;;;18.80;53.60;;;;;;5013024;28;20187;-70
2023/04/26 00:43:38;;;;;;;1.52;1.42;;;18.80;53.60;;;;;;5012716;28;20184;-71
2023/04/26 00:46:08;;;;;;;2.30;2.10;;;18.80;53.60;;;;;;5029141;28;20675;-70
2023/04/26 00:48:36;;;;;;;2.22;2.00;;;18.80;53.60;;;;;;5014259;28;20195;-70
2023/04/26 00:51:04;;;;;;;2.17;1.98;;;18.80;53.60;;;;;;4990132;28;20738;-70
2023/04/26 00:53:33;;;;;;;1.60;1.50;;;18.80;53.50;;;;;;4986818;28;20664;-70
2023/04/26 00:55:58;;;;;;;2.15;1.98;;;18.80;53.60;;;;;;5009936;28;20298;-70
2023/04/26 00:58:25;;;;;;;1.60;1.40;;;18.80;53.60;;;;;;5013652;28;20332;-71
2023/04/26 01:00:51;;;;;;;1.73;1.63;;;18.80;53.60;;;;;;4996433;28;20200;-70
2023/04/26 01:03:16;;;;;;;2.13;1.77;;;18.80;53.60;;;;;;5012450;28;20191;-70
2023/04/26 01:05:43;;;;;;;1.80;1.70;;;18.80;53.60;;;;;;5004145;28;20207;-70
2023/04/26 01:08:10;;;;;;;1.85;1.75;;;18.80;53.60;;;;;;5000043;28;20184;-70
2023/04/26 01:10:35;;;;;;;2.15;1.60;;;18.80;53.50;;;;;;5012316;28;20207;-70
2023/04/26 01:13:02;;;;;;;1.75;1.60;;;18.80;53.50;;;;;;5020605;28;20192;-70
2023/04/26 01:15:29;;;;;;;2.00;1.70;;;18.80;53.50;;;;;;5005698;28;20192;-70
2023/04/26 01:17:58;;;;;;;2.67;1.90;;;18.80;53.60;;;;;;5013491;28;20298;-70
2023/04/26 01:20:25;;;;;;;2.83;1.90;;;18.80;53.60;;;;;;5028600;28;20264;-70
2023/04/26 01:22:51;;;;;;;1.98;1.77;;;18.80;53.50;;;;;;5028489;28;20188;-70
2023/04/26 01:25:18;;;;;;;1.92;1.50;;;18.80;53.50;;;;;;4995669;28;20290;-70
2023/04/26 01:27:43;;;;;;;1.65;1.55;;;18.80;53.60;;;;;;5001128;28;20608;-70
2023/04/26 01:30:11;;;;;;;1.63;1.52;;;18.80;53.50;;;;;;5012093;28;20187;-70
2023/04/26 01:32:37;;;;;;;1.70;1.60;;;18.80;53.50;;;;;;5012971;28;20280;-71
2023/04/26 01:35:04;;;;;;;1.83;1.73;;;18.80;53.50;;;;;;5011907;28;20216;-72
2023/04/26 01:37:30;;;;;;;1.75;1.65;;;18.80;53.50;;;;;;5010015;28;20215;-70
2023/04/26 01:39:58;;;;;;;2.35;1.75;;;18.80;53.50;;;;;;5006137;28;20710;-70
2023/04/26 01:42:24;;;;;;;2.55;2.10;;;18.80;53.50;;;;;;4997841;28;20188;-70
2023/04/26 01:44:50;;;;;;;1.50;1.40;;;18.80;53.50;;;;;;5011588;28;20659;-70
2023/04/26 01:47:16;;;;;;;2.47;1.75;;;18.80;53.50;;;;;;5012014;28;20224;-70
2023/04/26 01:49:41;;;;;;;1.85;1.70;;;18.80;53.50;;;;;;4995621;28;20195;-70
2023/04/26 01:52:07;;;;;;;2.40;1.73;;;18.80;53.50;;;;;;5024695;28;20184;-70
2023/04/26 01:54:33;;;;;;;1.75;1.65;;;18.80;53.50;;;;;;5011430;28;20200;-70
2023/04/26 01:56:59;;;;;;;1.65;1.55;;;18.80;53.50;;;;;;5011531;28;20204;-70
2023/04/26 01:59:26;;;;;;;1.85;1.70;;;18.80;53.50;;;;;;4995369;28;20234;-69
2023/04/26 02:01:52;;;;;;;1.73;1.60;;;18.70;53.40;;;;;;5011732;28;20273;-70
2023/04/26 02:04:18;;;;;;;1.55;1.45;;;18.80;53.50;;;;;;5019645;28;20202;-70
2023/04/26 02:06:43;;;;;;;2.03;1.70;;;18.80;53.50;;;;;;4991836;28;20201;-70
2023/04/26 02:09:10;;;;;;;2.03;1.92;;;18.80;53.50;;;;;;5006917;28;20628;-70
2023/04/26 02:11:39;;;;;;;1.67;1.58;;;18.80;53.50;;;;;;5012616;28;20253;-70
2023/04/26 02:14:05;;;;;;;2.47;1.50;;;18.80;53.50;;;;;;5011337;28;20640;-70
2023/04/26 02:16:31;;;;;;;2.25;2.08;;;18.80;53.50;;;;;;4980662;28;20246;-70
2023/04/26 02:18:58;;;;;;;1.55;1.45;;;18.80;53.50;;;;;;5002470;28;20204;-70
2023/04/26 02:21:24;;;;;;;1.40;1.30;;;18.80;53.50;;;;;;5011147;28;20292;-71
2023/04/26 02:23:50;;;;;;;2.35;1.75;;;18.80;53.50;;;;;;5011107;28;20242;-70
2023/04/26 02:26:15;;;;;;;1.67;1.58;;;18.80;53.50;;;;;;5015165;28;20196;-71
2023/04/26 02:28:42;;;;;;;1.55;1.40;;;18.80;53.70;;;;;;4993271;28;20185;-71
2023/04/26 02:31:08;;;;;;;1.55;1.45;;;18.80;53.50;;;;;;5015542;28;20245;-70
2023/04/26 02:33:34;;;;;;;1.50;1.40;;;18.80;53.50;;;;;;5011084;28;20188;-71
2023/04/26 02:36:05;;;;;;;1.50;1.40;;;18.80;53.50;;;;;;4994889;28;20303;-70
2023/04/26 02:38:35;;;;;;;2.08;1.90;;;18.80;53.50;;;;;;5010008;28;20211;-70
2023/04/26 02:41:03;;;;;;;1.60;1.50;;;18.80;53.40;;;;;;4989342;28;20187;-70
2023/04/26 02:43:29;;;;;;;2.00;1.60;;;18.80;53.40;;;;;;5009618;28;20188;-71
2023/04/26 02:45:57;;;;;;;1.50;1.40;;;18.80;53.50;;;;;;5004357;28;20698;-70
2023/04/26 02:48:24;;;;;;;2.60;1.70;;;18.80;53.40;;;;;;4998014;28;20187;-70
2023/04/26 02:50:50;;;;;;;2.20;1.50;;;18.80;53.50;;;;;;5027649;28;20207;-71
2023/04/26 02:53:16;;;;;;;1.70;1.60;;;18.80;53.40;;;;;;5010827;28;20242;-70
2023/04/26 02:55:42;;;;;;;1.88;1.58;;;18.80;53.50;;;;;;5019131;28;20192;-71
2023/04/26 02:58:08;;;;;;;1.60;1.50;;;18.80;53.50;;;;;;5024149;28;20215;-70
2023/04/26 03:00:34;;;;;;;1.60;1.50;;;18.80;53.50;;;;;;4993007;28;20185;-71
2023/04/26 03:03:01;;;;;;;1.77;1.55;;;18.70;53.40;;;;;;4981237;28;20209;-70
2023/04/26 03:05:27;;;;;;;1.52;1.42;;;18.80;53.40;;;;;;4991801;28;20184;-70
2023/04/26 03:07:53;;;;;;;1.60;1.50;;;18.80;53.50;;;;;;5010827;28;20210;-70
2023/04/26 03:10:18;;;;;;;1.80;1.65;;;18.80;53.50;;;;;;5027648;28;20282;-70
2023/04/26 03:12:44;;;;;;;1.70;1.60;;;18.80;53.40;;;;;;5024523;28;20189;-69
2023/04/26 03:15:10;;;;;;;1.52;1.42;;;18.80;53.40;;;;;;4999351;28;20196;-70
2023/04/26 03:17:38;;;;;;;1.75;1.65;;;18.80;53.50;;;;;;5009114;28;20216;-70
2023/04/26 03:20:06;;;;;;;1.58;1.48;;;18.80;53.40;;;;;;4994572;28;20559;-70
2023/04/26 03:22:32;;;;;;;1.58;1.48;;;18.80;53.40;;;;;;4977309;28;20264;-70
2023/04/26 03:24:58;;;;;;;1.70;1.60;;;18.80;53.40;;;;;;5003830;28;20176;-70
2023/04/26 03:27:26;;;;;;;1.55;1.40;;;18.80;53.40;;;;;;5010527;28;20208;-71
2023/04/26 03:29:52;;;;;;;1.33;1.23;;;18.70;53.30;;;;;;5003696;28;20195;-70
2023/04/26 03:32:17;;;;;;;1.98;1.80;;;18.80;53.40;;;;;;5030585;28;20214;-70
2023/04/26 03:34:43;;;;;;;1.38;1.30;;;18.80;53.40;;;;;;5013826;28;20196;-71
2023/04/26 03:37:09;;;;;;;1.67;1.58;;;18.80;53.40;;;;;;5013868;28;20283;-70
2023/04/26 03:39:36;;;;;;;1.60;1.50;;;18.80;53.40;;;;;;5014428;28;20195;-70
2023/04/26 03:42:02;;;;;;;1.88;1.60;;;18.80;53.40;;;;;;5014070;28;20191;-70
2023/04/26 03:44:28;;;;;;;1.60;1.50;;;18.80;53.40;;;;;;5005619;28;20184;-70
2023/04/26 03:46:54;;;;;;;2.20;1.48;;;18.80;53.40;;;;;;5005998;28;20206;-71
2023/04/26 03:49:21;;;;;;;1.60;1.50;;;18.80;53.40;;;;;;5014144;28;20199;-71
2023/04/26 03:51:47;;;;;;;1.83;1.55;;;18.80;53.40;;;;;;4997973;28;20191;-70
2023/04/26 03:54:14;;;;;;;1.60;1.50;;;18.80;53.30;;;;;;5013877;28;20188;-71
2023/04/26 03:56:40;;;;;;;1.95;1.60;;;18.80;53.30;;;;;;4997347;28;20226;-70
2023/04/26 03:59:08;;;;;;;1.85;1.75;;;18.80;53.30;;;;;;4997553;28;20218;-70
2023/04/26 04:01:35;;;;;;;1.50;1.40;;;18.80;53.30;;;;;;5013701;28;20275;-70
2023/04/26 04:04:01;;;;;;;1.40;1.40;;;18.70;53.20;;;;;;5013685;28;20227;-71
2023/04/26 04:06:28;;;;;;;1.65;1.40;;;18.70;53.20;;;;;;5013319;28;20227;-70
2023/04/26 04:08:54;;;;;;;1.63;1.42;;;18.70;53.20;;;;;;5014990;28;20214;-70
2023/04/26 04:11:20;;;;;;;1.38;1.33;;;18.80;53.40;;;;;;5013472;28;20254;-70
2023/04/26 04:13:46;;;;;;;1.98;1.63;;;18.80;53.30;;;;;;4997782;28;20663;-70
2023/04/26 04:16:12;;;;;;;1.65;1.55;;;18.80;53.30;;;;;;5013261;28;20223;-70
2023/04/26 04:18:37;;;;;;;1.90;1.80;;;18.80;53.30;;;;;;5005351;28;20216;-71
2023/04/26 04:21:03;;;;;;;1.67;1.58;;;18.80;53.30;;;;;;5005387;28;20234;-71
2023/04/26 04:23:29;;;;;;;1.30;1.20;;;18.80;53.30;;;;;;4988673;28;20211;-71
2023/04/26 04:25:55;;;;;;;1.60;1.50;;;18.80;53.30;;;;;;5013217;28;20306;-71
2023/04/26 04:28:22;;;;;;;1.73;1.63;;;18.80;53.30;;;;;;5005333;28;20187;-71
2023/04/26 04:30:48;;;;;;;1.50;1.40;;;18.80;53.30;;;;;;5013069;28;20667;-71
2023/04/26 04:33:15;;;;;;;2.60;1.65;;;18.80;53.30;;;;;;5006590;28;20243;-71
2023/04/26 04:35:41;;;;;;;1.70;1.60;;;18.80;53.30;;;;;;5027643;28;20203;-71
2023/04/26 04:38:07;;;;;;;1.60;1.50;;;18.80;53.30;;;;;;5006740;28;20304;-71
2023/04/26 04:40:33;;;;;;;1.70;1.60;;;18.80;53.30;;;;;;5004562;28;20227;-71
2023/04/26 04:42:59;;;;;;;2.03;1.83;;;18.70;53.40;;;;;;4987931;28;20181;-71
2023/04/26 04:45:27;;;;;;;1.90;1.80;;;18.80;53.50;;;;;;5029464;28;20280;-71
2023/04/26 04:47:55;;;;;;;1.63;1.52;;;18.80;53.50;;;;;;5012985;28;20219;-71
2023/04/26 04:50:22;;;;;;;1.67;1.52;;;18.80;53.50;;;;;;5005633;28;20223;-71
2023/04/26 04:52:48;;;;;;;1.75;1.52;;;18.80;53.40;;;;;;5021190;28;20184;-72
2023/04/26 04:55:14;;;;;;;1.60;1.50;;;18.80;53.40;;;;;;5012450;28;20184;-71
2023/04/26 04:57:41;;;;;;;1.67;1.58;;;18.80;53.40;;;;;;5010691;28;20223;-71
2023/04/26 05:00:14;;;;;;;1.70;1.60;;;18.80;53.40;;;;;;5006246;28;20207;-71
2023/04/26 05:02:47;;;;;;;1.50;1.40;;;18.80;53.40;;;;;;4997064;28;20192;-70
2023/04/26 05:05:14;;;;;;;1.70;1.60;;;18.80;53.40;;;;;;5012777;28;20180;-71
2023/04/26 05:07:40;;;;;;;1.95;1.55;;;18.80;53.30;;;;;;4987841;28;20215;-71
2023/04/26 05:10:07;;;;;;;1.52;1.40;;;18.80;53.40;;;;;;4996120;28;20188;-71
2023/04/26 05:12:34;;;;;;;2.30;1.35;;;18.80;53.40;;;;;;5028769;28;20219;-71
2023/04/26 05:15:00;;;;;;;1.63;1.52;;;18.80;53.40;;;;;;5008094;28;20192;-71
2023/04/26 05:17:26;;;;;;;1.63;1.50;;;18.80;53.40;;;;;;4964478;28;20233;-72
2023/04/26 05:19:52;;;;;;;1.50;1.40;;;18.80;53.40;;;;;;5011707;28;20231;-72
2023/04/26 05:22:20;;;;;;;1.55;1.40;;;18.80;53.40;;;;;;5012433;28;20180;-71
2023/04/26 05:24:47;;;;;;;1.98;1.80;;;18.80;53.30;;;;;;4987534;28;20212;-71
2023/04/26 05:27:13;;;;;;;1.52;1.42;;;18.80;53.40;;;;;;5022778;28;20243;-71
2023/04/26 05:30:06;;;;;;;2.20;1.60;;;18.90;53.40;;;;;;5012102;28;20239;-70
2023/04/26 05:32:55;;;;;;;1.55;1.45;;;18.80;53.40;;;;;;4998404;28;20634;-71
2023/04/26 05:35:34;;;;;;;1.80;1.70;;;18.80;53.40;;;;;;4993476;28;20192;-72
2023/04/26 05:38:00;;;;;;;1.70;1.60;;;18.80;53.40;;;;;;4988259;28;20216;-71
2023/04/26 05:40:25;;;;;;;1.60;1.50;;;18.80;53.40;;;;;;5012105;28;20183;-71
2023/04/26 05:42:52;;;;;;;1.70;1.60;;;18.80;53.40;;;;;;5024979;28;20195;-71
2023/04/26 05:45:18;;;;;;;1.70;1.58;;;18.80;53.40;;;;;;5025012;28;20180;-71
2023/04/26 05:47:43;;;;;;;1.90;1.80;;;18.80;53.40;;;;;;5011344;28;20211;-71
2023/04/26 05:50:09;;;;;;;1.55;1.45;;;18.90;53.40;;;;;;5011820;28;20195;-71
2023/04/26 05:52:36;;;;;;;1.60;1.50;;;18.80;53.40;;;;;;5003593;28;20219;-71
2023/04/26 05:55:03;;;;;;;2.80;1.80;;;18.80;53.40;;;;;;5012542;28;20196;-71
2023/04/26 05:57:29;;;;;;;1.70;1.60;;;18.80;53.40;;;;;;5027551;28;20262;-72
2023/04/26 05:59:55;;;;;;;1.88;1.50;;;18.80;53.40;;;;;;5011635;28;20179;-71
2023/04/26 06:02:21;;;;;;;2.10;1.90;;;18.80;53.40;;;;;;4996824;28;20189;-71
2023/04/26 06:04:47;;;;;;;2.08;1.80;;;18.80;53.40;;;;;;5008007;28;20188;-72
2023/04/26 06:07:16;;;;;;;2.13;2.03;;;18.80;53.40;;;;;;5005330;28;20208;-71
2023/04/26 06:09:42;;;;;;;1.92;1.67;;;18.90;53.50;;;;;;5005138;28;20571;-71
2023/04/26 06:12:08;;;;;;;1.70;1.60;;;18.90;53.50;;;;;;5027617;28;20176;-71
2023/04/26 06:14:38;;;;;;;2.25;1.90;;;18.90;53.50;;;;;;5027494;28;20259;-71
2023/04/26 06:17:08;;;;;;;1.83;1.73;;;18.90;53.40;;;;;;5011643;28;20279;-71
2023/04/26 06:19:34;;;;;;;1.67;1.58;;;18.90;53.40;;;;;;5008128;28;20255;-72
2023/04/26 06:22:00;;;;;;;1.75;1.65;;;18.90;53.40;;;;;;5003081;28;20235;-72
2023/04/26 06:24:26;;;;;;;1.75;1.65;;;18.90;53.40;;;;;;5007925;28;20274;-72
2023/04/26 06:26:52;;;;;;;1.90;1.80;;;18.90;53.40;;;;;;5008437;28;20204;-71
2023/04/26 06:29:20;;;;;;;2.20;1.85;;;18.90;53.50;;;;;;5005653;28;20195;-71
2023/04/26 06:31:45;;;;;;;2.47;2.10;;;19.00;53.60;;;;;;4995216;28;20711;-72
2023/04/26 06:34:12;;;;;;;1.98;1.77;;;19.00;53.50;;;;;;5009761;28;20195;-71
2023/04/26 06:36:37;;;;;;;2.60;2.10;;;19.00;53.40;;;;;;5012324;28;20216;-71
2023/04/26 06:39:05;;;;;;;2.03;1.85;;;19.00;53.40;;;;;;5006903;28;20728;-72
2023/04/26 06:41:31;;;;;;;5.07;2.00;;;19.00;53.40;;;;;;4998785;28;20212;-72
2023/04/26 06:43:57;;;;;;;2.72;1.80;;;19.10;53.50;;;;;;4994048;28;20211;-71
2023/04/26 06:46:29;;;;;;;2.75;2.20;;;19.10;53.50;;;;;;5011152;28;20199;-72
2023/04/26 06:48:55;;;;;;;2.38;2.17;;;19.10;53.40;;;;;;5010950;28;20200;-71
2023/04/26 06:51:21;;;;;;;2.08;1.98;;;19.20;53.50;;;;;;5010869;28;20192;-71
2023/04/26 06:53:47;;;;;;;2.22;1.90;;;19.20;53.50;;;;;;5023018;28;20196;-71
2023/04/26 06:56:14;;;;;;;2.17;1.98;;;19.20;53.40;;;;;;5022026;28;20205;-71
2023/04/26 06:58:57;;;;;;;2.08;1.92;;;19.20;53.30;;;;;;4990884;28;20311;-71
2023/04/26 07:01:23;;;;;;;2.72;2.40;;;19.20;53.30;;;;;;5000628;28;20242;-71
2023/04/26 07:03:48;;;;;;;2.58;2.38;;;19.20;53.30;;;;;;4990773;28;20184;-71
2023/04/26 07:06:15;;;;;;;2.78;2.38;;;19.20;53.30;;;;;;5000378;28;20288;-71
2023/04/26 07:08:41;;;;;;;2.33;2.13;;;19.20;53.40;;;;;;5014295;28;20219;-71
2023/04/26 07:11:11;;;;;;;2.50;2.00;;;19.20;53.40;;;;;;5021245;28;20245;-71
2023/04/26 07:13:37;;;;;;;3.53;2.00;;;19.30;53.40;;;;;;4998041;28;20196;-72
2023/04/26 07:16:03;;;;;;;2.10;1.90;;;19.30;53.40;;;;;;5014277;28;20218;-72
2023/04/26 07:18:30;;;;;;;3.10;2.22;;;19.30;53.40;;;;;;4998309;28;20207;-71
2023/04/26 07:20:56;;;;;;;2.08;1.90;;;19.30;53.30;;;;;;5007205;28;20197;-72
2023/04/26 07:23:22;;;;;;;3.08;2.05;;;19.30;53.30;;;;;;5014032;28;20689;-71
2023/04/26 07:25:48;;;;;;;2.83;2.17;;;19.30;53.30;;;;;;5014318;28;20199;-71
2023/04/26 07:28:14;;;;;;;2.10;1.90;;;19.30;53.30;;;;;;5030422;28;20187;-72
2023/04/26 07:30:41;;;;;;;1.80;1.70;;;19.30;53.30;;;;;;5015328;28;20228;-71
2023/04/26 07:33:06;;;;;;;2.13;1.90;;;19.30;53.30;;;;;;4997648;28;20187;-71
2023/04/26 07:35:34;;;;;;;2.17;1.92;;;19.30;53.30;;;;;;5002052;28;20198;-72
2023/04/26 07:38:00;;;;;;;2.95;1.98;;;19.30;53.40;;;;;;5015135;28;20234;-72
2023/04/26 07:40:28;;;;;;;1.90;1.80;;;19.30;53.40;;;;;;5014109;28;20188;-71
2023/04/26 07:42:54;;;;;;;2.20;2.00;;;19.30;53.40;;;;;;5014045;28;20196;-71
2023/04/26 07:45:20;;;;;;;2.15;1.90;;;19.30;53.40;;;;;;5013683;28;20183;-71
2023/04/26 07:47:46;;;;;;;2.10;1.83;;;19.30;53.30;;;;;;5021855;28;20212;-71
2023/04/26 07:50:12;;;;;;;1.80;1.70;;;19.30;53.30;;;;;;5005836;28;20196;-71
2023/04/26 07:52:38;;;;;;;2.05;1.83;;;19.30;53.30;;;;;;5013597;28;20192;-71
2023/04/26 07:55:04;;;;;;;2.45;1.85;;;19.30;53.20;;;;;;5005366;28;20279;-72
2023/04/26 07:57:30;;;;;;;2.30;2.10;;;19.40;53.20;;;;;;5026181;28;20204;-72
2023/04/26 07:59:57;;;;;;;2.33;2.00;;;19.40;53.10;;;;;;5011346;28;20198;-71
2023/04/26 08:02:23;;;;;;;2.25;2.05;;;19.40;53.10;;;;;;5007871;28;20184;-72
2023/04/26 08:04:54;;;;;;;1.75;1.63;;;19.40;53.10;;;;;;4998935;28;20291;-71
2023/04/26 08:07:20;;;;;;;1.48;1.38;;;19.40;53.20;;;;;;5014627;28;20210;-71
2023/04/26 08:09:47;;;;;;;3.78;2.20;;;19.40;53.10;;;;;;5029705;28;20230;-71
2023/04/26 08:12:14;;;;;;;3.08;2.30;;;19.40;53.10;;;;;;5013687;28;20183;-71
2023/04/26 08:14:40;;;;;;;2.40;1.90;;;19.40;53.20;;;;;;5029808;28;20271;-72
2023/04/26 08:17:11;;;;;;;2.25;1.80;;;19.40;53.10;;;;;;5020265;28;20207;-72
2023/04/26 08:19:37;;;;;;;1.80;1.70;;;19.40;53.10;;;;;;5005696;28;20220;-72
2023/04/26 08:22:03;;;;;;;2.17;1.98;;;19.40;53.10;;;;;;5013665;28;20196;-71
2023/04/26 08:24:29;;;;;;;2.03;1.55;;;19.40;53.20;;;;;;5004819;28;20264;-72
2023/04/26 08:26:55;;;;;;;2.92;2.10;;;19.40;53.10;;;;;;5011198;28;20290;-71
2023/04/26 08:29:22;;;;;;;1.70;1.60;;;19.40;53.70;;;;;;4985576;28;20287;-72
2023/04/26 08:31:48;;;;;;;1.73;1.63;;;19.40;53.10;;;;;;5010537;28;20199;-71
2023/04/26 08:34:14;;;;;;;2.45;1.92;;;19.40;53.10;;;;;;5028148;28;20204;-71
2023/04/26 08:36:40;;;;;;;2.20;2.00;;;19.40;53.10;;;;;;4996419;28;20219;-71
2023/04/26 08:39:07;;;;;;;2.83;1.65;;;19.40;53.10;;;;;;4996535;28;20211;-71
2023/04/26 08:41:44;;;;;;;2.38;1.90;;;19.40;53.10;;;;;;5025992;28;20222;-71
2023/04/26 08:44:10;;;;;;;2.75;2.03;;;19.40;53.00;;;;;;5018031;28;20204;-72
2023/04/26 08:47:15;;;;;;;1.92;1.80;;;19.40;53.00;;;;;;5005469;28;20304;-72
2023/04/26 08:49:46;;;;;;;2.30;2.10;;;19.40;53.00;;;;;;4988271;28;20394;-72
2023/04/26 08:52:15;;;;;;;2.53;2.03;;;19.40;53.00;;;;;;5005023;28;20196;-71
2023/04/26 08:54:41;;;;;;;2.40;1.73;;;19.40;53.00;;;;;;5009163;28;20192;-71
2023/04/26 08:57:08;;;;;;;2.88;1.85;;;19.40;53.00;;;;;;5012252;28;20285;-71
2023/04/26 08:59:38;;;;;;;1.55;1.40;;;19.40;52.90;;;;;;5012520;28;20606;-71
2023/04/26 09:02:06;;;;;;;2.10;1.90;;;19.40;52.90;;;;;;4996110;28;20246;-71
2023/04/26 09:04:32;;;;;;;2.60;1.70;;;19.40;52.90;;;;;;5012152;28;20548;-71
2023/04/26 09:07:03;;;;;;;2.28;1.80;;;19.50;53.00;;;;;;5020437;28;20208;-72
2023/04/26 09:09:38;;;;;;;1.70;1.60;;;19.50;53.00;;;;;;5000899;28;20644;-72
2023/04/26 09:12:04;;;;;;;2.00;1.80;;;19.50;52.80;;;;;;5012810;28;20204;-72
2023/04/26 09:14:30;;;;;;;2.20;1.75;;;19.50;52.90;;;;;;4995767;28;20231;-71
2023/04/26 09:16:56;;;;;;;2.22;1.80;;;19.50;52.80;;;;;;5013105;28;20231;-72
2023/04/26 09:19:36;;;;;;;2.63;1.50;;;19.50;52.90;;;;;;5000080;28;20229;-71
2023/04/26 09:22:02;;;;;;;1.98;1.60;;;19.50;52.90;;;;;;5002698;28;20224;-71
2023/04/26 09:24:51;;;;;;;1.48;1.38;;;19.50;52.80;;;;;;5022556;28;20220;-71
2023/04/26 09:27:20;;;;;;;3.38;1.83;;;19.50;52.80;;;;;;5011587;28;20208;-70
2023/04/26 09:30:17;;;;;;;2.90;1.90;;;19.50;52.90;;;;;;5011999;28;20192;-72
2023/04/26 09:33:05;;;;;;;1.70;1.60;;;19.50;52.90;;;;;;5000950;28;20303;-72
2023/04/26 09:35:40;;;;;;;2.50;1.65;;;19.50;52.90;;;;;;5006500;28;20202;-72
2023/04/26 09:38:15;;;;;;;2.28;1.70;;;19.50;52.90;;;;;;4995559;28;20311;-72
2023/04/26 09:40:48;;;;;;;1.60;1.50;;;19.50;52.80;;;;;;5013022;28;20183;-71
2023/04/26 09:43:21;;;;;;;1.90;1.60;;;19.50;52.90;;;;;;4988100;28;20246;-72
2023/04/26 09:45:56;;;;;;;1.70;1.60;;;19.50;52.80;;;;;;4995113;28;20275;-71
2023/04/26 09:48:33;;;;;;;2.13;1.60;;;19.50;52.90;;;;;;5008336;28;20192;-72
2023/04/26 09:51:12;;;;;;;2.15;1.83;;;19.50;52.90;;;;;;5010201;28;20195;-72
2023/04/26 09:53:45;;;;;;;1.88;1.75;;;19.50;52.90;;;;;;5012664;28;20322;-72
2023/04/26 09:56:17;;;;;;;2.00;1.63;;;19.50;52.80;;;;;;5008095;28;20211;-71
2023/04/26 09:58:46;;;;;;;2.20;1.70;;;19.60;52.80;;;;;;4993086;28;20311;-71
2023/04/26 10:01:18;;;;;;;1.63;1.38;;;19.60;52.80;;;;;;5003603;28;20188;-72
2023/04/26 10:03:45;;;;;;;2.22;1.55;;;19.60;52.90;;;;;;5011230;28;20196;-71
2023/04/26 10:06:15;;;;;;;1.50;1.40;;;19.60;52.80;;;;;;5011224;28;20204;-71
2023/04/26 10:08:41;;;;;;;1.88;1.60;;;19.60;52.80;;;;;;5011843;28;20210;-71
2023/04/26 10:11:10;;;;;;;1.33;1.30;;;19.60;52.80;;;;;;5025222;28;20287;-71
2023/04/26 10:13:36;;;;;;;1.60;1.50;;;19.60;52.90;;;;;;4992736;28;20200;-71
2023/04/26 10:16:03;;;;;;;1.13;1.10;;;19.60;52.90;;;;;;4991402;28;20223;-71
2023/04/26 10:18:30;;;;;;;1.50;1.40;;;19.60;52.80;;;;;;5005540;28;20307;-71
2023/04/26 10:21:18;;;;;;;2.67;1.60;;;19.60;52.80;;;;;;5003334;28;20192;-72
2023/04/26 10:23:46;;;;;;;1.63;1.40;;;19.50;52.60;;;;;;5006889;28;20199;-71
2023/04/26 10:26:54;;;;;;;1.80;1.70;;;19.60;52.90;;;;;;4999977;28;20196;-71
2023/04/26 10:29:21;;;;;;;1.50;1.35;;;19.60;52.80;;;;;;4999731;28;20188;-71
2023/04/26 10:32:04;;;;;;;1.40;1.30;;;19.60;52.80;;;;;;5003167;28;20609;-71
2023/04/26 10:34:32;;;;;;;1.05;1.05;;;19.60;52.80;;;;;;5004882;28;20690;-71
2023/04/26 10:37:17;;;;;;;1.85;1.40;;;19.60;52.70;;;;;;5012183;28;20235;-70
2023/04/26 10:39:45;;;;;;;1.67;1.42;;;19.60;52.80;;;;;;5012213;28;20223;-71
2023/04/26 10:42:26;;;;;;;1.95;1.13;;;19.60;52.90;;;;;;4966634;28;20191;-71
2023/04/26 10:45:19;;;;;;;1.45;1.35;;;19.60;52.80;;;;;;5015336;28;20188;-72
2023/04/26 10:47:45;;;;;;;1.60;1.50;;;19.60;52.70;;;;;;5014649;28;20216;-71
2023/04/26 10:50:11;;;;;;;1.33;1.23;;;19.60;52.70;;;;;;5004741;28;20212;-71
2023/04/26 10:52:59;;;;;;;1.40;1.20;;;19.60;52.70;;;;;;4991127;28;20653;-71
2023/04/26 10:55:41;;;;;;;1.40;1.30;;;19.60;52.60;;;;;;5013218;28;20195;-71
2023/04/26 10:58:31;;;;;;;1.30;1.20;;;19.60;52.60;;;;;;5012179;28;20208;-71
2023/04/26 11:01:12;;;;;;;1.33;1.23;;;19.60;52.70;;;;;;5003342;28;20251;-72
2023/04/26 11:03:39;;;;;;;1.42;1.15;;;19.60;52.60;;;;;;4985135;28;20198;-70
2023/04/26 11:06:12;;;;;;;1.40;1.20;;;19.60;52.70;;;;;;5014521;28;20636;-71
2023/04/26 11:08:38;;;;;;;1.33;1.23;;;19.60;52.70;;;;;;4998303;28;20195;-71
2023/04/26 11:11:09;;;;;;;1.48;1.38;;;19.60;52.70;;;;;;5013861;28;20191;-71
2023/04/26 11:13:41;;;;;;;1.60;1.50;;;19.60;52.60;;;;;;5008826;28;20246;-71
2023/04/26 11:16:12;;;;;;;1.20;1.10;;;19.60;52.60;;;;;;4999279;28;20220;-71
2023/04/26 11:18:41;;;;;;;1.48;1.38;;;19.70;52.50;;;;;;5014778;28;20303;-71
2023/04/26 11:21:08;;;;;;;2.55;1.50;;;19.60;52.60;;;;;;5017019;28;20192;-71
2023/04/26 11:23:35;;;;;;;2.08;1.45;;;19.60;52.60;;;;;;5016888;28;20649;-70
2023/04/26 11:26:04;;;;;;;1.30;1.20;;;19.60;52.60;;;;;;5019183;28;20692;-70
2023/04/26 11:28:31;;;;;;;1.77;1.40;;;19.60;52.40;;;;;;5000235;28;20651;-71
2023/04/26 11:30:57;;;;;;;1.42;1.10;;;19.60;52.50;;;;;;5009229;28;20279;-72
2023/04/26 11:33:24;;;;;;;1.83;1.17;;;19.60;52.40;;;;;;5010018;28;20196;-70
2023/04/26 11:35:56;;;;;;;1.55;1.45;;;19.60;52.50;;;;;;4999368;28;20197;-71
2023/04/26 11:38:24;;;;;;;1.60;1.50;;;19.60;52.60;;;;;;5006551;28;20212;-71
2023/04/26 11:41:01;;;;;;;1.70;1.45;;;19.60;52.90;;;;;;5022448;28;20195;-71
2023/04/26 11:43:40;;;;;;;1.40;1.30;;;19.60;52.70;;;;;;5022079;28;20194;-71
2023/04/26 11:46:08;;;;;;;1.45;1.35;;;19.60;52.50;;;;;;5020293;28;20222;-71
2023/04/26 11:48:36;;;;;;;1.67;1.40;;;19.60;52.40;;;;;;5008028;28;20203;-71
2023/04/26 11:51:04;;;;;;;1.60;1.50;;;19.60;52.30;;;;;;5005384;28;20196;-71
2023/04/26 11:53:42;;;;;;;1.50;1.40;;;19.60;52.50;;;;;;4998913;28;20663;-71
2023/04/26 11:56:20;;;;;;;1.50;1.40;;;19.60;52.30;;;;;;4979024;28;20212;-71
2023/04/26 11:58:51;;;;;;;1.75;1.30;;;19.60;52.40;;;;;;4993351;28;20315;-71
2023/04/26 12:01:25;;;;;;;1.55;1.45;;;19.60;52.40;;;;;;4995426;28;20267;-71
2023/04/26 12:03:58;;;;;;;1.20;1.20;;;19.60;52.40;;;;;;4985658;28;20223;-71
2023/04/26 12:06:45;;;;;;;1.27;1.17;;;19.60;52.40;;;;;;4990076;28;20687;-71
2023/04/26 12:09:11;;;;;;;1.60;1.50;;;19.70;52.60;;;;;;5012531;28;20192;-71
2023/04/26 12:11:38;;;;;;;1.42;1.30;;;19.60;52.40;;;;;;5007904;28;20196;-71
2023/04/26 12:14:06;;;;;;;1.45;1.25;;;19.70;52.40;;;;;;5013373;28;20196;-70
2023/04/26 12:16:35;;;;;;;1.60;1.50;;;19.70;52.50;;;;;;5005448;28;20237;-72
2023/04/26 12:19:08;;;;;;;2.15;1.50;;;19.60;52.40;;;;;;5004460;28;20220;-71
2023/04/26 12:21:45;;;;;;;1.80;1.60;;;19.70;52.40;;;;;;4985470;28;20217;-71
2023/04/26 12:24:31;;;;;;;2.10;1.83;;;19.70;52.30;;;;;;5004059;28;20194;-70
2023/04/26 12:26:56;;;;;;;2.65;1.60;;;19.70;52.40;;;;;;5021283;28;20209;-71
2023/04/26 12:29:22;;;;;;;2.47;1.90;;;19.60;52.30;;;;;;4997550;28;20188;-72
2023/04/26 12:31:48;;;;;;;2.30;2.10;;;19.70;52.40;;;;;;5013443;28;20583;-72
2023/04/26 12:34:14;;;;;;;2.40;2.00;;;19.70;52.40;;;;;;5005806;28;20198;-71
2023/04/26 12:36:43;;;;;;;2.70;2.13;;;19.60;52.20;;;;;;5005477;28;20216;-71
2023/04/26 12:39:12;;;;;;;2.55;2.10;;;19.70;52.40;;;;;;5012850;28;20683;-72
2023/04/26 12:41:39;;;;;;;2.60;1.92;;;19.70;52.40;;;;;;4985660;28;20200;-70
2023/04/26 12:44:07;;;;;;;2.63;2.42;;;19.70;52.30;;;;;;5009474;28;20274;-71
2023/04/26 12:46:33;;;;;;;2.95;2.42;;;19.70;52.40;;;;;;4993847;28;20707;-72
2023/04/26 12:48:59;;;;;;;2.80;2.50;;;19.70;52.40;;;;;;5001843;28;20291;-71
2023/04/26 12:51:25;;;;;;;5.10;3.20;;;19.70;52.30;;;;;;5014214;28;20274;-71
2023/04/26 12:53:51;;;;;;;4.72;3.78;;;19.60;52.20;;;;;;5025012;28;20199;-72
2023/04/26 12:56:17;;;;;;;4.13;3.60;;;19.60;52.20;;;;;;4993603;28;20209;-72